Time;durP1;ratioP1;P1;durP2;ratioP2;P2;SDS_P1;SDS_P2;PMS_P1;PMS_P2;Temp;Humidity;BMP_temperature;BMP_pressure;BME280_temperature;BME280_humidity;BME280_pressure;Samples;Min_cycle;Max_cycle;Signal;HPM_P1;HPM_P2
2024/03/01 00:01:22;;;;;;;127.30;57.10;;;;;;;0.14;100.00;101664.03;106473;1251;72404;-86
2024/03/01 00:03:50;;;;;;;113.00;53.60;;;;;;;0.24;100.00;101663.36;106546;1251;68373;-85
2024/03/01 00:06:20;;;;;;;116.80;54.60;;;;;;;0.29;100.00;101663.48;106514;1253;71488;-87
2024/03/01 00:08:48;;;;;;;113.20;52.40;;;;;;;0.20;100.00;101663.34;106856;1251;60489;-87
2024/03/01 00:11:16;;;;;;;108.80;52.40;;;;;;;0.06;100.00;101663.73;106445;1258;60522;-87
2024/03/01 00:13:43;;;;;;;117.60;54.00;;;;;;;0.04;100.00;101662.48;106506;1251;72593;-86
2024/03/01 00:16:11;;;;;;;111.20;51.80;;;;;;;0.03;100.00;101656.70;106591;1251;67228;-85
2024/03/01 00:18:39;;;;;;;126.70;54.40;;;;;;;-0.01;100.00;101654.34;106889;1253;72630;-85
2024/03/01 00:21:07;;;;;;;115.20;53.40;;;;;;;0.00;100.00;101650.41;106594;1256;60642;-87
2024/03/01 00:23:35;;;;;;;113.50;51.20;;;;;;;-0.01;100.00;101646.75;106474;1251;60525;-87
2024/03/01 00:26:03;;;;;;;119.40;54.20;;;;;;;-0.01;100.00;101651.13;106634;1253;73879;-85
2024/03/01 00:28:30;;;;;;;127.80;58.20;;;;;;;-0.02;100.00;101649.45;106479;1253;66455;-85
2024/03/01 00:30:58;;;;;;;121.10;55.90;;;;;;;-0.07;100.00;101648.38;106522;1253;71385;-88
2024/03/01 00:33:26;;;;;;;114.30;53.30;;;;;;;-0.13;100.00;101651.64;106659;1254;60639;-85
2024/03/01 00:35:54;;;;;;;126.50;56.50;;;;;;;-0.13;100.00;101651.45;106685;1251;60127;-85
2024/03/01 00:38:22;;;;;;;113.10;52.40;;;;;;;-0.07;100.00;101652.88;106591;1251;72587;-85
2024/03/01 00:40:49;;;;;;;112.60;52.60;;;;;;;-0.04;100.00;101654.79;106486;1251;68428;-85
2024/03/01 00:43:18;;;;;;;118.70;54.90;;;;;;;-0.07;100.00;101650.90;106433;1253;72569;-87
2024/03/01 00:45:46;;;;;;;116.00;55.60;;;;;;;-0.10;100.00;101652.29;106375;1256;60496;-88
2024/03/01 00:48:13;;;;;;;114.50;56.80;;;;;;;-0.10;100.00;101659.11;106501;1251;60469;-85
2024/03/01 00:50:41;;;;;;;113.60;52.20;;;;;;;-0.09;100.00;101663.50;106477;1251;74485;-87
2024/03/01 00:53:09;;;;;;;99.60;48.60;;;;;;;-0.06;100.00;101661.20;106399;1252;67277;-86
2024/03/01 00:55:37;;;;;;;125.50;53.90;;;;;;;-0.04;100.00;101662.39;106441;1253;72652;-87
2024/03/01 00:58:05;;;;;;;156.00;70.30;;;;;;;-0.18;100.00;101671.36;106434;1253;60491;-85
2024/03/01 01:00:33;;;;;;;156.80;68.80;;;;;;;-0.20;100.00;101669.10;107239;1252;60451;-88
2024/03/01 05:30:36;;;;;;;100.00;50.70;;;;;;;0.23;100.00;101638.11;106569;1253;70013;-91
2024/03/01 05:33:24;;;;;;;99.70;47.00;;;;;;;0.30;100.00;101640.11;106162;1256;71522;-86
2024/03/01 05:36:05;;;;;;;101.30;50.30;;;;;;;0.37;100.00;101636.73;106388;1253;60555;-86
2024/03/01 05:38:46;;;;;;;93.80;46.00;;;;;;;0.38;100.00;101628.55;106358;1253;60680;-86
2024/03/01 05:41:20;;;;;;;94.60;47.70;;;;;;;0.44;100.00;101629.48;106388;1252;73793;-86
2024/03/01 05:43:54;;;;;;;100.00;47.20;;;;;;;0.52;100.00;101625.27;106918;1253;67116;-86
2024/03/01 05:46:34;;;;;;;119.40;55.20;;;;;;;0.59;100.00;101625.11;106493;1253;72633;-87
2024/03/01 05:49:12;;;;;;;124.40;58.60;;;;;;;0.71;100.00;101622.59;106235;1253;60430;-87
2024/03/01 05:51:45;;;;;;;120.90;57.10;;;;;;;0.76;100.00;101627.54;106269;1252;60584;-86
2024/03/01 05:54:17;;;;;;;113.90;54.00;;;;;;;0.87;100.00;101631.16;106228;1251;73846;-86
2024/03/01 05:56:53;;;;;;;112.90;57.20;;;;;;;0.97;100.00;101633.16;106806;1251;68376;-86
2024/03/01 05:59:30;;;;;;;119.40;58.00;;;;;;;1.07;100.00;101630.44;106298;1252;71636;-87
2024/03/01 06:01:58;;;;;;;115.70;59.90;;;;;;;1.27;100.00;101631.09;106466;1253;60240;-86
2024/03/01 06:04:35;;;;;;;139.50;69.60;;;;;;;1.39;100.00;101629.48;106133;1258;60333;-86
2024/03/01 06:07:05;;;;;;;140.10;74.20;;;;;;;1.58;100.00;101634.05;106345;1256;73832;-87
2024/03/01 06:09:40;;;;;;;136.30;75.40;;;;;;;1.78;100.00;101637.80;106136;1256;67647;-87
2024/03/01 06:12:08;;;;;;;223.40;112.70;;;;;;;1.94;100.00;101641.25;106953;1253;73281;-87
2024/03/01 06:14:38;;;;;;;197.00;112.00;;;;;;;2.01;100.00;101640.37;106260;1253;60492;-87
2024/03/01 06:17:14;;;;;;;149.60;82.60;;;;;;;2.09;100.00;101638.66;106504;1251;61153;-87
2024/03/01 06:19:48;;;;;;;158.00;84.70;;;;;;;2.20;100.00;101640.13;106353;1257;72663;-87
2024/03/01 06:22:16;;;;;;;168.70;92.50;;;;;;;2.32;100.00;101633.11;106627;1253;68366;-87
2024/03/01 06:24:52;;;;;;;166.20;92.60;;;;;;;2.47;100.00;101629.82;106400;1254;71061;-88
2024/03/01 06:27:27;;;;;;;154.10;83.60;;;;;;;2.58;100.00;101631.23;106841;1253;60458;-87
2024/03/01 06:30:03;;;;;;;133.70;67.00;;;;;;;2.73;100.00;101630.08;106418;1256;60432;-88
2024/03/01 06:32:42;;;;;;;122.00;69.10;;;;;;;2.89;100.00;101629.21;106621;1256;73127;-87
2024/03/01 06:35:19;;;;;;;127.50;68.50;;;;;;;3.08;100.00;101628.55;106437;1256;67103;-88
2024/03/01 06:37:54;;;;;;;131.40;65.80;;;;;;;3.17;100.00;101635.73;106658;1253;72733;-88
2024/03/01 06:40:28;;;;;;;117.70;63.10;;;;;;;3.29;100.00;101637.33;106348;1256;60428;-88
2024/03/01 06:42:58;;;;;;;131.70;62.40;;;;;;;3.46;100.00;101643.61;107069;1253;61706;-88
2024/03/01 06:45:35;;;;;;;104.60;57.20;;;;;;;3.65;100.00;101651.95;106631;1251;73998;-89
2024/03/01 06:48:12;;;;;;;92.30;50.50;;;;;;;3.82;100.00;101658.72;106490;1253;68843;-89
2024/03/01 06:50:55;;;;;;;89.10;48.10;;;;;;;3.98;100.00;101658.71;106465;1257;72721;-87
2024/03/01 06:53:22;;;;;;;90.50;48.90;;;;;;;4.11;100.00;101662.34;106511;1253;60560;-88
2024/03/01 06:55:58;;;;;;;80.80;44.90;;;;;;;4.20;100.00;101664.85;106916;1253;59313;-90
2024/03/01 06:58:33;;;;;;;77.60;41.30;;;;;;;4.39;100.00;101671.71;106505;1253;73525;-88
2024/03/01 07:01:08;;;;;;;78.50;41.60;;;;;;;4.62;100.00;101669.66;106724;1253;69668;-89
2024/03/01 07:03:39;;;;;;;73.30;41.20;;;;;;;4.90;100.00;101659.83;106318;1253;76019;-89
2024/03/01 07:06:15;;;;;;;77.30;41.40;;;;;;;5.09;100.00;101663.31;106789;1253;61957;-90
2024/03/01 07:08:50;;;;;;;142.40;78.50;;;;;;;5.18;100.00;101663.53;106302;1253;62087;-89
2024/03/01 07:11:26;;;;;;;97.70;53.40;;;;;;;5.37;100.00;101662.51;106497;1256;76307;-91
2024/03/01 07:13:56;;;;;;;57.40;33.10;;;;;;;5.59;100.00;101667.70;106676;1256;70138;-88
2024/03/01 07:16:31;;;;;;;58.20;30.80;;;;;;;5.71;100.00;101665.72;106686;1253;75242;-88
2024/03/01 07:19:07;;;;;;;48.00;27.70;;;;;;;5.87;100.00;101660.03;106289;1253;60559;-88
2024/03/01 07:21:41;;;;;;;54.00;27.00;;;;;;;6.07;100.00;101658.45;106430;1251;60426;-87
2024/03/01 07:24:10;;;;;;;44.10;24.90;;;;;;;6.27;100.00;101656.14;106482;1253;73318;-89
2024/03/01 07:26:46;;;;;;;47.70;25.70;;;;;;;6.54;100.00;101653.82;106381;1253;70312;-87
2024/03/01 07:29:21;;;;;;;46.00;24.80;;;;;;;6.67;100.00;101649.17;106436;1253;73645;-87
2024/03/01 07:31:55;;;;;;;49.20;26.90;;;;;;;6.76;100.00;101647.21;106607;1256;60509;-86
2024/03/01 07:34:28;;;;;;;45.70;26.50;;;;;;;6.91;100.00;101648.39;106473;1253;62127;-86
2024/03/01 07:37:04;;;;;;;43.80;24.50;;;;;;;7.05;100.00;101649.67;106984;1251;74160;-87
2024/03/01 07:39:39;;;;;;;47.00;25.70;;;;;;;7.19;100.00;101653.17;106443;1253;71235;-87
2024/03/01 07:42:13;;;;;;;41.30;22.70;;;;;;;7.47;100.00;101651.03;106494;1253;72916;-88
2024/03/01 07:44:43;;;;;;;45.70;24.30;;;;;;;7.65;100.00;101648.43;106485;1253;61003;-87
2024/03/01 07:47:18;;;;;;;45.80;25.00;;;;;;;7.83;100.00;101651.52;106443;1253;62144;-87
2024/03/01 07:49:54;;;;;;;49.30;25.60;;;;;;;8.09;100.00;101653.13;107371;1253;75548;-89
2024/03/01 07:52:28;;;;;;;49.00;25.70;;;;;;;8.26;100.00;101650.21;106360;1251;68538;-87
2024/03/01 07:54:58;;;;;;;47.30;24.90;;;;;;;8.33;100.00;101650.66;106403;1253;74456;-86
2024/03/01 07:57:34;;;;;;;45.70;25.50;;;;;;;8.49;100.00;101655.12;106459;1253;61232;-87
2024/03/01 08:00:10;;;;;;;45.10;24.50;;;;;;;8.61;100.00;101653.75;106198;1253;61014;-86
2024/03/01 08:02:38;;;;;;;46.70;24.90;;;;;;;8.62;100.00;101652.48;106620;1256;74992;-87
2024/03/01 08:05:13;;;;;;;41.00;23.70;;;;;;;8.72;100.00;101650.23;106934;1253;71478;-88
2024/03/01 08:07:49;;;;;;;45.30;23.60;;;;;;;8.78;100.00;101647.48;106319;1256;73713;-87
2024/03/01 08:10:25;;;;;;;43.70;23.40;;;;;;;8.79;100.00;101648.67;106409;1254;61692;-86
2024/03/01 08:12:53;;;;;;;40.00;23.90;;;;;;;8.83;100.00;101650.45;106208;1253;60513;-86
2024/03/01 08:15:29;;;;;;;44.60;24.30;;;;;;;8.88;100.00;101655.52;106324;1254;75924;-87
2024/03/01 08:18:17;;;;;;;50.60;25.60;;;;;;;8.89;100.00;101648.29;106234;1254;68872;-87
2024/03/01 08:20:58;;;;;;;40.10;23.60;;;;;;;8.86;100.00;101642.98;106546;1253;74177;-85
2024/03/01 08:23:27;;;;;;;44.80;24.00;;;;;;;8.84;100.00;101644.05;106395;1258;62239;-84
2024/03/01 08:26:03;;;;;;;42.60;24.80;;;;;;;8.81;100.00;101644.89;106412;1253;60753;-84
2024/03/01 08:28:38;;;;;;;48.00;23.70;;;;;;;8.86;100.00;101644.35;106319;1251;74870;-85
2024/03/01 08:31:26;;;;;;;41.50;22.20;;;;;;;8.99;100.00;101644.25;107104;1258;69099;-87
2024/03/01 08:33:59;;;;;;;45.60;22.90;;;;;;;9.05;100.00;101638.45;106343;1253;74508;-87
2024/03/01 08:36:31;;;;;;;34.40;21.60;;;;;;;9.13;100.00;101639.14;106515;1253;62571;-87
2024/03/01 08:39:15;;;;;;;40.10;22.30;;;;;;;9.04;100.00;101636.89;106516;1257;61087;-87
2024/03/01 08:41:55;;;;;;;37.90;21.60;;;;;;;8.93;100.00;101631.98;106451;1253;74813;-84
2024/03/01 08:44:32;;;;;;;39.60;19.90;;;;;;;8.89;100.00;101632.98;106424;1253;72016;-83
2024/03/01 08:47:02;;;;;;;38.60;20.90;;;;;;;8.97;100.00;101640.96;106471;1252;74767;-84
2024/03/01 08:50:04;;;;;;;35.40;20.40;;;;;;;9.02;100.00;101646.39;107058;1253;61893;-84
2024/03/01 08:52:37;;;;;;;38.60;21.10;;;;;;;9.02;100.00;101641.15;106321;1253;60904;-84
2024/03/01 08:55:18;;;;;;;39.20;20.20;;;;;;;9.01;100.00;101634.58;106393;1253;75733;-87
2024/03/01 08:57:50;;;;;;;41.70;22.10;;;;;;;9.12;100.00;101634.82;106521;1253;71507;-86
2024/03/01 09:00:42;;;;;;;38.20;20.80;;;;;;;9.29;99.89;101635.77;106435;1256;72589;-86
2024/03/01 09:03:25;;;;;;;39.80;22.00;;;;;;;9.35;100.00;101637.96;106669;1257;61551;-87
2024/03/01 09:05:59;;;;;;;38.30;21.50;;;;;;;9.40;99.95;101638.11;106339;1253;60588;-86
2024/03/01 09:08:31;;;;;;;40.20;21.40;;;;;;;9.54;99.29;101637.35;106478;1253;75803;-86
2024/03/01 09:11:06;;;;;;;;;;;;;;;9.69;99.25;101631.09;106589;1253;71020;-87
2024/03/01 09:13:40;;;;;;;44.00;22.40;;;;;;;9.84;97.24;101620.16;106371;1253;73788;-87
2024/03/01 09:16:21;;;;;;;35.80;20.20;;;;;;;9.86;96.29;101622.39;106328;1253;60452;-87
2024/03/01 09:18:49;;;;;;;37.60;21.40;;;;;;;9.78;94.59;101620.18;106749;1252;60527;-87
2024/03/01 09:21:30;;;;;;;37.00;20.40;;;;;;;9.84;93.65;101618.27;106466;1253;75925;-86
2024/03/01 09:24:04;;;;;;;36.20;19.90;;;;;;;9.91;91.73;101610.52;106416;1253;71114;-86
2024/03/01 09:26:39;;;;;;;34.80;19.80;;;;;;;9.97;90.95;101608.55;106551;1257;74266;-86
2024/03/01 09:29:07;;;;;;;36.30;20.00;;;;;;;10.05;89.60;101606.82;106359;1253;61359;-87
2024/03/01 13:32:07;;;;;;;34.90;15.20;;;;;;;9.63;54.54;101488.73;107016;1259;60346;-84
2024/03/01 13:34:47;;;;;;;32.30;13.80;;;;;;;9.53;54.96;101491.84;107109;1254;75949;-86
2024/03/01 13:37:54;;;;;;;30.70;14.30;;;;;;;9.61;54.59;101495.85;106287;1255;291186;-87
2024/03/01 13:40:47;;;;;;;30.90;14.10;;;;;;;9.58;54.07;101492.42;107273;1254;72082;-84
2024/03/01 13:43:29;;;;;;;42.40;16.20;;;;;;;9.56;54.37;101489.11;108601;1254;60433;-84
2024/03/01 13:46:15;;;;;;;33.20;15.60;;;;;;;9.57;54.44;101492.23;106446;1259;62155;-85
2024/03/01 13:48:56;;;;;;;26.60;13.30;;;;;;;9.58;54.25;101497.28;108020;1257;76134;-85
2024/03/01 13:51:36;;;;;;;26.90;13.80;;;;;;;9.56;53.96;101494.23;106406;1258;71184;-86
2024/03/01 13:54:17;;;;;;;28.10;14.50;;;;;;;9.56;54.12;101494.40;106063;1259;75017;-86
2024/03/01 13:57:00;;;;;;;30.50;15.60;;;;;;;9.45;54.31;101496.08;106143;1259;60553;-86
2024/03/01 13:59:40;;;;;;;32.30;16.60;;;;;;;9.43;54.84;101501.51;106244;1260;61164;-86
2024/03/01 14:02:20;;;;;;;29.90;14.90;;;;;;;9.39;54.64;101496.02;106279;1253;74449;-85
2024/03/01 14:05:13;;;;;;;27.60;14.80;;;;;;;9.38;54.90;101498.09;106250;1259;70804;-87
2024/03/01 14:07:54;;;;;;;29.10;15.80;;;;;;;9.35;54.88;101495.75;106355;1259;74675;-85
2024/03/01 14:10:34;;;;;;;30.00;15.30;;;;;;;9.29;54.94;101502.40;106371;1253;61146;-86
2024/03/01 14:13:14;;;;;;;29.20;15.70;;;;;;;9.24;55.26;101498.21;106346;1257;62391;-86
2024/03/01 14:15:59;;;;;;;33.00;15.70;;;;;;;9.19;55.51;101502.15;106278;1257;74785;-85
2024/03/01 14:18:39;;;;;;;32.50;15.30;;;;;;;9.16;55.64;101513.66;106448;1262;71030;-85
2024/03/01 14:21:19;;;;;;;32.70;17.10;;;;;;;9.08;55.83;101517.38;106504;1254;73747;-84
2024/03/01 14:24:02;;;;;;;32.60;17.40;;;;;;;9.04;56.30;101514.64;107523;1255;60522;-85
2024/03/01 14:26:42;;;;;;;32.30;16.00;;;;;;;9.00;56.53;101513.08;106858;1255;61916;-86
2024/03/01 14:29:22;;;;;;;35.50;16.80;;;;;;;8.85;57.15;101509.31;106319;1254;75996;-85
2024/03/01 14:32:15;;;;;;;31.40;15.90;;;;;;;8.81;57.46;101506.66;106434;1254;69930;-86
2024/03/01 14:34:56;;;;;;;28.00;16.00;;;;;;;8.80;57.76;101505.44;106574;1254;74201;-86
2024/03/01 14:37:36;;;;;;;30.50;16.10;;;;;;;8.74;57.71;101504.77;106496;1259;61425;-87
2024/03/01 14:40:17;;;;;;;31.10;15.40;;;;;;;8.62;58.29;101505.27;106568;1256;60362;-85
2024/03/01 14:43:07;;;;;;;27.90;16.30;;;;;;;8.50;58.57;101503.68;106318;1260;74963;-85
2024/03/01 14:45:47;;;;;;;33.60;16.50;;;;;;;8.47;58.69;101508.78;106508;1257;70698;-86
2024/03/01 14:48:36;;;;;;;29.50;14.80;;;;;;;8.37;58.65;101512.34;106438;1254;73678;-85
2024/03/01 14:51:15;;;;;;;31.60;16.00;;;;;;;8.31;58.89;101511.95;106537;1253;60408;-86
2024/03/01 14:53:56;;;;;;;28.30;13.80;;;;;;;8.26;58.64;101507.80;106426;1257;60425;-86
2024/03/01 14:56:36;;;;;;;34.90;16.10;;;;;;;8.18;58.57;101506.15;106542;1257;73659;-87
2024/03/01 14:59:17;;;;;;;37.80;16.30;;;;;;;8.09;58.44;101494.95;106347;1254;70527;-86
2024/03/01 15:01:58;;;;;;;34.50;16.00;;;;;;;8.01;58.47;101491.72;107311;1254;74921;-85
2024/03/01 15:04:38;;;;;;;28.00;13.10;;;;;;;7.94;58.13;101491.63;108637;1254;63396;-86
2024/03/01 15:07:22;;;;;;;27.90;13.50;;;;;;;7.86;57.92;101490.17;106484;1257;60416;-85
2024/03/01 15:10:02;;;;;;;25.20;12.50;;;;;;;7.85;57.96;101480.57;107901;1254;73292;-87
2024/03/01 15:12:45;;;;;;;28.60;13.30;;;;;;;7.80;57.85;101476.04;107962;1256;69851;-87
2024/03/01 15:15:24;;;;;;;27.60;14.00;;;;;;;7.74;58.24;101478.58;108467;1254;75050;-86
2024/03/01 15:18:09;;;;;;;30.80;14.90;;;;;;;7.68;58.81;101481.31;106525;1254;60560;-86
2024/03/01 15:20:49;;;;;;;32.20;15.80;;;;;;;7.64;59.55;101481.22;106737;1254;62231;-86
2024/03/01 15:23:29;;;;;;;34.10;16.10;;;;;;;7.62;60.04;101477.90;106323;1251;75377;-86
2024/03/01 15:26:09;;;;;;;29.20;14.80;;;;;;;7.57;60.41;101482.13;106315;1251;70211;-86
2024/03/01 15:28:49;;;;;;;27.90;14.20;;;;;;;7.57;60.61;101483.25;106463;1254;74119;-86
2024/03/01 15:31:30;;;;;;;31.20;13.40;;;;;;;7.50;60.47;101482.55;106553;1251;60431;-85
2024/03/01 15:34:10;;;;;;;25.70;13.00;;;;;;;7.34;60.79;101476.48;106430;1254;61972;-86
2024/03/01 15:36:44;;;;;;;24.40;13.40;;;;;;;7.26;61.08;101476.11;106396;1251;76159;-85
2024/03/01 15:39:18;;;;;;;26.10;12.90;;;;;;;7.18;61.32;101477.55;106381;1257;70398;-85
2024/03/01 15:41:58;;;;;;;23.80;12.80;;;;;;;7.10;62.11;101473.80;106366;1257;74965;-85
2024/03/01 15:44:38;;;;;;;21.60;13.20;;;;;;;7.00;62.74;101476.75;106326;1257;61147;-86
2024/03/01 15:47:12;;;;;;;24.80;14.00;;;;;;;6.93;63.82;101477.84;106361;1273;61050;-86
2024/03/01 15:49:46;;;;;;;26.40;13.20;;;;;;;6.87;64.66;101479.55;106331;1256;76348;-86
2024/03/01 15:52:27;;;;;;;34.10;16.20;;;;;;;6.84;66.11;101485.70;106446;1257;68901;-85
2024/03/01 15:55:07;;;;;;;30.10;15.40;;;;;;;6.81;67.16;101485.61;106581;1258;74861;-86
2024/03/01 15:57:42;;;;;;;29.40;15.40;;;;;;;6.79;68.49;101486.55;108457;1253;61980;-86
2024/03/01 16:00:19;;;;;;;34.00;16.10;;;;;;;6.77;69.50;101485.08;106838;1254;62180;-86
2024/03/01 16:02:58;;;;;;;30.60;15.70;;;;;;;6.71;70.55;101484.36;107872;1254;74992;-86
2024/03/01 16:05:42;;;;;;;27.70;15.90;;;;;;;6.66;71.84;101487.27;106518;1257;69647;-86
2024/03/01 16:08:20;;;;;;;29.10;15.00;;;;;;;6.59;73.31;101492.70;106524;1254;74036;-86
2024/03/01 16:11:02;;;;;;;28.00;14.70;;;;;;;6.53;74.34;101496.49;106554;1254;61370;-86
2024/03/01 16:13:42;;;;;;;21.40;11.50;;;;;;;6.39;76.06;101497.73;106614;1257;60440;-85
2024/03/01 16:16:22;;;;;;;31.40;16.90;;;;;;;6.35;77.36;101499.48;106571;1251;74944;-86
2024/03/01 16:18:56;;;;;;;35.10;16.90;;;;;;;6.29;78.93;101502.23;106568;1253;70988;-86
2024/03/01 16:21:30;;;;;;;38.10;17.90;;;;;;;6.26;79.46;101506.89;106357;1251;76455;-86
2024/03/01 16:24:10;;;;;;;32.00;17.20;;;;;;;6.26;80.45;101506.35;106621;1253;61116;-87
2024/03/01 16:26:50;;;;;;;32.00;16.90;;;;;;;6.27;80.43;101506.77;106531;1251;62300;-86
2024/03/01 16:29:24;;;;;;;32.00;16.90;;;;;;;6.25;81.19;101506.35;106411;1257;75644;-86
2024/03/01 16:31:59;;;;;;;28.00;15.90;;;;;;;6.27;81.44;101506.80;106225;1254;71427;-86
2024/03/01 16:34:39;;;;;;;28.70;15.50;;;;;;;6.25;82.12;101505.32;106506;1257;74703;-86
2024/03/01 16:37:21;;;;;;;31.40;16.80;;;;;;;6.11;82.76;101505.66;106554;1254;62331;-86
2024/03/01 16:39:55;;;;;;;46.80;20.10;;;;;;;6.04;83.35;101508.16;107160;1251;62350;-87
2024/03/01 16:42:35;;;;;;;40.00;20.80;;;;;;;5.95;83.88;101509.65;107001;1255;75280;-86
2024/03/01 16:45:42;;;;;;;39.00;19.80;;;;;;;5.95;83.88;101507.19;106607;1253;69380;-86
2024/03/01 16:48:52;;;;;;;33.80;18.40;;;;;;;5.88;84.47;101503.93;106544;1258;73920;-86
2024/03/01 16:51:47;;;;;;;34.70;18.00;;;;;;;5.88;84.14;101500.89;106477;1259;61521;-86
2024/03/01 16:54:33;;;;;;;36.20;18.20;;;;;;;5.81;84.58;101496.98;106327;1254;62297;-86
2024/03/01 16:57:25;;;;;;;36.50;18.30;;;;;;;5.76;84.75;101497.30;106507;1253;77120;-86
2024/03/01 17:00:00;;;;;;;40.10;20.20;;;;;;;5.71;84.88;101498.48;106478;1253;70398;-86
2024/03/01 17:02:41;;;;;;;38.00;21.50;;;;;;;5.65;85.39;101499.11;106689;1256;74314;-86
2024/03/01 17:05:43;;;;;;;46.10;20.80;;;;;;;5.61;85.79;101504.75;106286;1253;62750;-86
2024/03/01 17:08:32;;;;;;;34.10;19.00;;;;;;;5.58;86.30;101501.14;106419;1253;61648;-86
2024/03/01 17:11:00;;;;;;;33.20;17.60;;;;;;;5.52;86.65;101505.80;106537;1251;77211;-86
2024/03/01 17:13:41;;;;;;;31.70;17.10;;;;;;;5.47;87.09;101502.59;106553;1256;72402;-85
2024/03/01 17:16:32;;;;;;;35.10;19.50;;;;;;;5.43;86.80;101497.70;106548;1251;76191;-86
2024/03/01 17:19:17;;;;;;;35.10;18.20;;;;;;;5.36;87.69;101492.91;106629;1254;60699;-86
2024/03/01 17:22:00;;;;;;;31.90;16.50;;;;;;;5.30;88.34;101498.84;106510;1253;61527;-86
2024/03/01 17:24:34;;;;;;;32.60;17.10;;;;;;;5.24;89.14;101501.91;106547;1254;76430;-86
2024/03/01 17:27:14;;;;;;;36.00;18.00;;;;;;;5.18;89.08;101506.20;106459;1257;70077;-85
2024/03/01 17:29:54;;;;;;;39.00;18.80;;;;;;;5.12;89.76;101509.86;106464;1254;73328;-85
